createdAt,value
2018-12-23T00:00:35.956Z,71.10
2018-12-23T00:03:10.683Z,71.10
2018-12-23T00:05:43.653Z,71.40
2018-12-23T00:08:18.345Z,72.20
2018-12-23T00:10:53.087Z,72.90
2018-12-23T00:13:28.234Z,72.00
2018-12-23T00:16:05.018Z,72.50
2018-12-23T00:18:39.847Z,72.00
2018-12-23T00:21:14.857Z,72.60
2018-12-23T00:23:48.362Z,73.10
2018-12-23T00:26:25.497Z,73.90
2018-12-23T00:29:00.529Z,74.20
2018-12-23T00:31:34.913Z,74.10
2018-12-23T00:34:09.096Z,74.70
2018-12-23T00:36:45.013Z,75.20
2018-12-23T00:39:20.181Z,75.10
2018-12-23T00:41:54.643Z,72.10
2018-12-23T00:44:28.384Z,67.80
2018-12-23T00:47:03.084Z,66.10
2018-12-23T00:49:38.106Z,64.00
2018-12-23T00:52:13.404Z,63.30
2018-12-23T00:54:48.375Z,64.10
2018-12-23T00:57:23.103Z,64.40
2018-12-23T00:59:59.127Z,64.80
2018-12-23T01:02:34.244Z,63.60
2018-12-23T01:05:09.502Z,62.60
2018-12-23T01:07:46.023Z,64.70
2018-12-23T01:10:23.057Z,65.20
2018-12-23T01:12:56.085Z,63.70
2018-12-23T01:15:30.807Z,63.10
2018-12-23T01:18:05.861Z,63.10
2018-12-23T01:20:40.772Z,63.70
2018-12-23T01:23:15.789Z,64.50
2018-12-23T01:25:50.264Z,64.40
2018-12-23T01:28:25.348Z,64.10
2018-12-23T01:31:00.631Z,64.10
2018-12-23T01:33:35.902Z,64.00
2018-12-23T01:36:11.899Z,63.50
2018-12-23T01:38:46.901Z,63.70
2018-12-23T01:41:23.047Z,63.80
2018-12-23T01:43:57.929Z,64.40
2018-12-23T01:46:33.040Z,64.10
2018-12-23T01:49:09.394Z,65.20
2018-12-23T01:51:43.917Z,64.60
2018-12-23T01:54:19.103Z,64.80
2018-12-23T01:56:54.334Z,65.60
2018-12-23T01:59:29.500Z,65.80
2018-12-23T02:02:04.805Z,67.00
2018-12-23T02:04:39.178Z,66.50
2018-12-23T02:07:14.159Z,67.50
2018-12-23T02:09:49.017Z,67.70
2018-12-23T02:12:24.095Z,67.70
2018-12-23T02:14:58.789Z,67.30
2018-12-23T02:17:33.699Z,67.40
2018-12-23T02:20:09.206Z,67.40
2018-12-23T02:22:43.781Z,67.50
2018-12-23T02:25:19.216Z,67.00
2018-12-23T02:27:55.804Z,66.50
2018-12-23T02:30:30.974Z,66.20
2018-12-23T02:33:05.795Z,66.80
2018-12-23T02:35:42.618Z,67.00
2018-12-23T02:38:18.895Z,67.80
2018-12-23T02:40:51.987Z,67.50
2018-12-23T02:43:27.296Z,68.80
2018-12-23T02:46:02.613Z,67.50
2018-12-23T02:48:38.912Z,67.40
2018-12-23T02:51:15.719Z,67.20
2018-12-23T02:53:50.688Z,67.00
2018-12-23T02:56:27.002Z,67.10
2018-12-23T02:59:01.329Z,67.70
2018-12-23T03:01:36.167Z,67.50
2018-12-23T03:04:11.960Z,67.30
2018-12-23T03:06:46.352Z,66.90
2018-12-23T03:09:21.217Z,68.00
2018-12-23T03:11:56.115Z,67.50
2018-12-23T03:14:31.412Z,67.60
2018-12-23T03:17:06.738Z,67.80
2018-12-23T03:19:41.357Z,68.20
2018-12-23T03:22:14.691Z,67.60
2018-12-23T03:24:49.561Z,67.40
2018-12-23T03:27:24.570Z,67.80
2018-12-23T03:29:57.483Z,67.90
2018-12-23T03:32:33.879Z,68.00
2018-12-23T03:35:08.908Z,68.20
2018-12-23T03:37:41.680Z,67.90
2018-12-23T03:40:16.740Z,68.50
2018-12-23T03:43:33.723Z,69.20
2018-12-23T03:46:07.232Z,69.60
2018-12-23T03:48:39.724Z,69.60
2018-12-23T03:51:13.026Z,69.10
2018-12-23T03:53:45.614Z,69.30
2018-12-23T03:56:18.772Z,69.00
2018-12-23T03:58:52.101Z,68.70
2018-12-23T04:01:25.415Z,68.30
2018-12-23T04:03:58.198Z,67.90
2018-12-23T04:06:31.399Z,68.20
2018-12-23T04:09:05.741Z,68.20
2018-12-23T04:11:38.844Z,67.20
2018-12-23T04:14:12.002Z,67.00
2018-12-23T04:16:44.803Z,67.70
2018-12-23T04:19:18.107Z,67.20
2018-12-23T04:21:51.449Z,67.70
2018-12-23T04:24:24.271Z,67.50
2018-12-23T04:26:57.823Z,67.10
2018-12-23T04:29:30.486Z,67.50
2018-12-23T04:32:03.617Z,66.90
2018-12-23T04:34:36.484Z,67.20
2018-12-23T04:37:10.007Z,67.50
2018-12-23T04:39:43.053Z,67.40
2018-12-23T04:42:17.133Z,66.90
2018-12-23T04:44:50.072Z,66.50
2018-12-23T04:47:23.459Z,67.30
2018-12-23T04:49:56.484Z,67.40
2018-12-23T04:52:29.582Z,66.60
2018-12-23T04:55:02.488Z,65.90
2018-12-23T04:57:36.023Z,66.30
2018-12-23T05:00:09.133Z,65.00
2018-12-23T05:02:42.162Z,64.60
2018-12-23T05:05:15.083Z,65.00
2018-12-23T05:07:48.072Z,65.30
2018-12-23T05:10:20.658Z,64.60
2018-12-23T05:12:53.306Z,64.30
2018-12-23T05:15:26.312Z,63.00
2018-12-23T05:17:59.448Z,63.70
2018-12-23T05:20:32.763Z,63.70
2018-12-23T05:23:05.681Z,64.10
2018-12-23T05:25:38.908Z,64.40
2018-12-23T05:28:11.634Z,64.80
2018-12-23T05:30:45.052Z,64.60
2018-12-23T05:33:18.130Z,64.50
2018-12-23T05:35:51.916Z,64.80
2018-12-23T05:38:24.712Z,65.70
2018-12-23T05:40:58.124Z,64.30
2018-12-23T05:43:33.842Z,64.60
2018-12-23T05:46:07.137Z,65.60
2018-12-23T05:48:40.615Z,65.00
2018-12-23T05:51:13.717Z,64.40
2018-12-23T05:53:46.424Z,64.20
2018-12-23T05:56:19.511Z,64.10
2018-12-23T05:58:52.792Z,64.70
2018-12-23T06:01:25.387Z,65.20
2018-12-23T06:03:59.170Z,64.80
2018-12-23T06:06:32.873Z,65.00
2018-12-23T06:09:07.399Z,65.00
2018-12-23T06:11:40.033Z,65.50
2018-12-23T06:14:13.305Z,65.50
2018-12-23T06:16:48.156Z,65.50
2018-12-23T06:19:21.041Z,65.80
2018-12-23T06:21:54.724Z,66.50
2018-12-23T06:24:27.997Z,66.30
2018-12-23T06:27:00.893Z,67.20
2018-12-23T06:29:34.751Z,68.00
2018-12-23T06:32:07.584Z,67.60
2018-12-23T06:34:40.962Z,67.20
2018-12-23T06:37:14.057Z,66.90
2018-12-23T06:39:46.931Z,67.10
2018-12-23T06:42:19.794Z,66.60
2018-12-23T06:44:52.750Z,67.00
2018-12-23T06:47:25.826Z,67.60
2018-12-23T06:49:59.512Z,67.80
2018-12-23T06:52:32.233Z,67.90
2018-12-23T06:55:05.456Z,68.20
2018-12-23T06:57:38.678Z,68.00
2018-12-23T07:00:12.972Z,68.30
2018-12-23T07:02:45.718Z,68.70
2018-12-23T07:05:18.570Z,68.80
2018-12-23T07:07:51.980Z,68.90
2018-12-23T07:10:24.814Z,69.30
2018-12-23T07:12:57.700Z,68.90
2018-12-23T07:15:30.322Z,69.10
2018-12-23T07:18:03.114Z,69.30
2018-12-23T07:20:35.845Z,69.50
2018-12-23T07:23:09.398Z,69.30
2018-12-23T07:25:41.920Z,69.50
2018-12-23T07:28:14.791Z,70.10
2018-12-23T07:30:47.917Z,70.70
2018-12-23T07:33:20.638Z,71.00
2018-12-23T07:35:53.186Z,70.80
2018-12-23T07:38:26.183Z,71.30
2018-12-23T07:40:58.822Z,71.50
2018-12-23T07:43:31.612Z,72.00
2018-12-23T07:46:04.506Z,72.00
2018-12-23T07:48:37.425Z,72.10
2018-12-23T07:51:10.899Z,72.20
2018-12-23T07:53:43.492Z,71.30
2018-12-23T07:56:16.673Z,70.80
2018-12-23T07:58:49.675Z,70.50
2018-12-23T08:01:23.189Z,70.80
2018-12-23T08:03:56.354Z,70.80
2018-12-23T08:06:29.182Z,70.20
2018-12-23T08:09:02.361Z,71.00
2018-12-23T08:11:35.572Z,70.10
2018-12-23T08:14:08.875Z,69.00
2018-12-23T08:16:41.745Z,69.00
2018-12-23T08:19:15.055Z,69.40
2018-12-23T08:21:47.849Z,69.30
2018-12-23T08:24:20.955Z,69.90
2018-12-23T08:26:53.848Z,70.30
2018-12-23T08:29:26.648Z,71.10
2018-12-23T08:31:59.681Z,70.90
2018-12-23T08:34:32.376Z,70.60
2018-12-23T08:37:05.898Z,70.80
2018-12-23T08:39:38.948Z,70.70
2018-12-23T08:42:12.292Z,71.10
2018-12-23T08:44:45.415Z,70.80
2018-12-23T08:47:18.578Z,70.70
2018-12-23T08:49:51.817Z,71.10
2018-12-23T08:52:24.586Z,70.40
2018-12-23T08:54:57.439Z,70.30
2018-12-23T08:57:30.841Z,70.20
2018-12-23T09:00:04.686Z,70.00
2018-12-23T09:02:38.109Z,70.40
2018-12-23T09:05:10.894Z,70.60
2018-12-23T09:07:52.854Z,70.60
2018-12-23T09:10:19.046Z,70.60
2018-12-23T09:12:52.384Z,71.20
2018-12-23T09:15:25.463Z,71.50
2018-12-23T09:17:58.292Z,72.20
2018-12-23T09:20:31.333Z,72.90
2018-12-23T09:23:04.698Z,73.20
2018-12-23T09:25:37.747Z,73.30
2018-12-23T09:28:10.604Z,73.50
2018-12-23T09:30:43.558Z,73.20
2018-12-23T09:33:16.748Z,73.40
2018-12-23T09:35:49.941Z,73.50
2018-12-23T09:38:22.499Z,73.60
2018-12-23T09:40:55.404Z,73.70
2018-12-23T09:43:28.587Z,73.50
2018-12-23T09:46:01.466Z,73.30
2018-12-23T09:48:34.139Z,73.40
2018-12-23T09:51:07.933Z,73.40
2018-12-23T09:53:40.780Z,73.80
2018-12-23T09:56:13.885Z,73.70
2018-12-23T09:58:47.026Z,73.50
2018-12-23T10:01:20.003Z,73.30
2018-12-23T10:03:52.895Z,73.40
2018-12-23T10:06:25.730Z,73.40
2018-12-23T10:08:59.119Z,73.30
2018-12-23T10:11:32.161Z,73.30
2018-12-23T10:14:05.103Z,73.40
2018-12-23T10:16:38.033Z,73.50
2018-12-23T10:19:11.369Z,74.10
2018-12-23T10:21:44.319Z,74.50
2018-12-23T10:24:17.670Z,74.80
2018-12-23T10:26:50.908Z,75.00
2018-12-23T10:29:23.633Z,75.60
2018-12-23T10:31:56.226Z,76.00
2018-12-23T10:34:29.203Z,76.70
2018-12-23T10:37:01.721Z,76.90
2018-12-23T10:39:34.895Z,77.50
2018-12-23T10:42:08.000Z,78.20
2018-12-23T10:44:44.376Z,78.50
2018-12-23T10:47:17.239Z,78.90
2018-12-23T10:49:50.286Z,79.50
2018-12-23T10:52:23.605Z,79.50
2018-12-23T10:54:56.695Z,79.70
2018-12-23T10:57:29.493Z,80.30
2018-12-23T11:00:02.450Z,80.20
2018-12-23T11:02:35.347Z,79.90
2018-12-23T11:05:08.625Z,79.60
2018-12-23T11:07:41.470Z,79.20
2018-12-23T11:10:14.580Z,79.60
2018-12-23T11:12:47.077Z,79.50
2018-12-23T11:15:20.477Z,79.50
2018-12-23T11:17:53.912Z,79.70
2018-12-23T11:20:26.388Z,79.70
2018-12-23T11:22:59.182Z,79.30
2018-12-23T11:25:31.932Z,80.50
2018-12-23T11:28:04.443Z,81.40
2018-12-23T11:30:37.237Z,81.90
2018-12-23T11:33:10.248Z,81.60
2018-12-23T11:35:43.658Z,81.90
2018-12-23T11:38:17.287Z,82.00
2018-12-23T11:40:50.499Z,81.90
2018-12-23T11:43:23.851Z,81.90
2018-12-23T11:45:56.621Z,81.60
2018-12-23T11:48:29.456Z,81.80
2018-12-23T11:51:02.541Z,81.50
2018-12-23T11:53:35.839Z,81.60
2018-12-23T11:56:09.199Z,81.30
2018-12-23T11:58:41.793Z,81.40
2018-12-23T12:01:14.621Z,81.80
2018-12-23T12:03:47.343Z,81.70
2018-12-23T12:06:20.808Z,81.70
2018-12-23T12:08:53.436Z,82.00
2018-12-23T12:11:26.369Z,81.80
2018-12-23T12:13:59.575Z,82.30
2018-12-23T12:16:32.223Z,82.20
2018-12-23T12:19:05.289Z,81.70
2018-12-23T12:21:38.536Z,81.30
2018-12-23T12:24:12.153Z,80.80
2018-12-23T12:26:45.140Z,79.90
2018-12-23T12:29:18.326Z,79.40
2018-12-23T12:31:51.248Z,79.20
2018-12-23T12:34:23.730Z,79.20
2018-12-23T12:36:56.974Z,78.70
2018-12-23T12:39:30.013Z,79.60
2018-12-23T12:42:03.064Z,79.90
2018-12-23T12:44:35.972Z,79.90
2018-12-23T12:47:09.269Z,81.00
2018-12-23T12:49:43.147Z,80.80
2018-12-23T12:52:16.139Z,81.00
2018-12-23T12:54:49.442Z,81.10
2018-12-23T12:57:22.412Z,81.60
2018-12-23T12:59:55.593Z,81.10
2018-12-23T13:02:28.365Z,80.80
2018-12-23T13:05:01.357Z,80.40
2018-12-23T13:07:34.167Z,81.60
2018-12-23T13:10:07.470Z,81.30
2018-12-23T13:12:40.146Z,81.10
2018-12-23T13:15:13.034Z,80.60
2018-12-23T13:17:46.209Z,80.70
2018-12-23T13:20:19.590Z,80.60
2018-12-23T13:22:52.916Z,80.30
2018-12-23T13:25:25.735Z,79.60
2018-12-23T13:27:58.427Z,78.90
2018-12-23T13:30:31.002Z,78.80
2018-12-23T13:33:04.065Z,78.50
2018-12-23T13:35:37.374Z,78.10
2018-12-23T13:38:11.214Z,77.60
2018-12-23T13:41:17.629Z,77.00
2018-12-23T13:44:21.587Z,76.70
2018-12-23T13:47:30.884Z,75.60
2018-12-23T13:50:35.830Z,74.50
2018-12-23T13:53:44.252Z,74.50
2018-12-23T13:56:57.150Z,74.10
2018-12-23T14:00:08.499Z,74.50
2018-12-23T14:03:06.061Z,73.60
2018-12-23T14:06:09.989Z,73.50
2018-12-23T14:09:34.725Z,73.30
2018-12-23T14:12:07.304Z,72.90
2018-12-23T14:14:40.402Z,71.40
2018-12-23T14:17:13.641Z,71.70
2018-12-23T14:19:46.730Z,71.70
2018-12-23T14:22:19.950Z,71.50
2018-12-23T14:24:52.839Z,71.30
2018-12-23T14:27:25.725Z,70.30
2018-12-23T14:29:58.567Z,69.90
2018-12-23T14:32:31.370Z,70.40
2018-12-23T14:35:04.390Z,70.90
2018-12-23T14:37:37.751Z,70.90
2018-12-23T14:40:11.010Z,70.30
2018-12-23T14:42:43.954Z,71.20
2018-12-23T14:45:16.696Z,70.30
2018-12-23T14:47:50.039Z,69.70
2018-12-23T14:50:23.286Z,69.00
2018-12-23T14:52:56.135Z,69.50
2018-12-23T14:55:29.656Z,68.30
2018-12-23T14:58:03.226Z,68.20
2018-12-23T15:00:35.978Z,68.00
2018-12-23T15:03:09.714Z,67.90
2018-12-23T15:05:42.956Z,67.90
2018-12-23T15:08:15.879Z,68.00
2018-12-23T15:10:49.362Z,68.40
2018-12-23T15:13:22.065Z,68.20
2018-12-23T15:15:54.841Z,67.80
2018-12-23T15:18:27.633Z,68.50
2018-12-23T15:21:00.461Z,66.90
2018-12-23T15:23:33.786Z,66.00
2018-12-23T15:26:07.068Z,66.80
2018-12-23T15:28:39.705Z,66.40
2018-12-23T15:31:13.108Z,66.00
2018-12-23T15:33:45.938Z,66.00
2018-12-23T15:36:20.248Z,66.40
2018-12-23T15:38:53.573Z,66.10
2018-12-23T15:41:26.714Z,66.60
2018-12-23T15:44:01.026Z,65.20
2018-12-23T15:46:34.223Z,65.50
2018-12-23T15:49:07.016Z,65.30
2018-12-23T15:51:40.453Z,66.20
2018-12-23T15:54:13.239Z,64.50
2018-12-23T15:56:46.421Z,63.70
2018-12-23T15:59:19.264Z,65.10
2018-12-23T16:01:52.210Z,65.00
2018-12-23T16:04:25.169Z,64.10
2018-12-23T16:06:58.503Z,62.40
2018-12-23T16:09:31.605Z,60.60
2018-12-23T16:12:04.555Z,60.60
2018-12-23T16:14:37.215Z,60.00
2018-12-23T16:17:10.531Z,59.20
2018-12-23T16:19:43.584Z,59.50
2018-12-23T16:22:16.503Z,59.50
2018-12-23T16:24:49.553Z,58.70
2018-12-23T16:27:22.302Z,58.30
2018-12-23T16:29:54.988Z,58.20
2018-12-23T16:32:28.028Z,57.40
2018-12-23T16:35:01.267Z,57.10
2018-12-23T16:37:33.894Z,57.80
2018-12-23T16:40:08.477Z,58.70
2018-12-23T16:42:41.528Z,58.80
2018-12-23T16:45:14.454Z,57.40
2018-12-23T16:47:47.254Z,57.50
2018-12-23T16:50:20.124Z,56.00
2018-12-23T16:52:53.378Z,56.20
2018-12-23T16:55:26.502Z,56.60
2018-12-23T16:58:01.361Z,56.60
2018-12-23T17:00:34.502Z,56.60
2018-12-23T17:03:07.359Z,56.00
2018-12-23T17:05:40.604Z,56.00
2018-12-23T17:08:13.376Z,57.00
2018-12-23T17:10:46.163Z,56.60
2018-12-23T17:13:19.399Z,56.40
2018-12-23T17:15:52.430Z,57.60
2018-12-23T17:18:25.403Z,59.60
2018-12-23T17:20:58.418Z,57.70
2018-12-23T17:23:31.056Z,56.90
2018-12-23T17:26:04.033Z,58.20
2018-12-23T17:28:37.128Z,58.60
2018-12-23T17:31:10.095Z,59.40
2018-12-23T17:33:42.908Z,60.10
2018-12-23T17:36:16.201Z,59.70
2018-12-23T17:38:49.212Z,59.20
2018-12-23T17:41:22.206Z,59.20
2018-12-23T17:43:55.357Z,59.30
2018-12-23T17:46:28.698Z,58.10
2018-12-23T17:49:02.321Z,57.80
2018-12-23T17:51:35.311Z,58.10
2018-12-23T17:54:08.352Z,58.90
2018-12-23T17:56:41.250Z,60.10
2018-12-23T17:59:14.014Z,59.80
2018-12-23T18:01:46.801Z,59.40
2018-12-23T18:04:19.764Z,58.60
2018-12-23T18:06:52.531Z,58.30
2018-12-23T18:09:25.619Z,58.00
2018-12-23T18:11:58.434Z,57.20
2018-12-23T18:14:31.066Z,57.50
2018-12-23T18:17:04.023Z,57.60
2018-12-23T18:19:37.301Z,57.50
2018-12-23T18:22:10.751Z,56.80
2018-12-23T18:24:43.846Z,56.90
2018-12-23T18:27:17.214Z,56.30
2018-12-23T18:29:50.014Z,55.50
2018-12-23T18:32:23.791Z,55.40
2018-12-23T18:34:56.678Z,54.50
2018-12-23T18:37:30.145Z,54.90
2018-12-23T18:40:03.435Z,54.50
2018-12-23T18:42:36.108Z,54.10
2018-12-23T18:45:09.681Z,53.60
2018-12-23T18:47:43.349Z,53.20
2018-12-23T18:50:16.665Z,53.50
2018-12-23T18:52:50.012Z,52.80
2018-12-23T18:55:23.220Z,52.40
2018-12-23T18:57:55.961Z,53.10
2018-12-23T19:00:29.381Z,54.00
2018-12-23T19:03:03.765Z,54.20
2018-12-23T19:05:36.379Z,53.80
2018-12-23T19:08:13.835Z,53.10
2018-12-23T19:11:25.035Z,52.90
2018-12-23T19:14:39.134Z,52.90
2018-12-23T19:17:36.846Z,52.70
2018-12-23T19:20:44.436Z,51.90
2018-12-23T19:24:11.600Z,52.10
2018-12-23T19:27:13.522Z,52.30
2018-12-23T19:30:29.312Z,51.80
2018-12-23T19:33:14.388Z,52.60
2018-12-23T19:36:08.937Z,52.20
2018-12-23T19:39:17.229Z,52.80
2018-12-23T19:42:58.408Z,53.60
2018-12-23T19:46:06.599Z,53.70
2018-12-23T19:49:16.501Z,54.40
2018-12-23T19:52:28.285Z,54.00
2018-12-23T19:55:55.322Z,54.30
2018-12-23T19:59:02.197Z,54.20
2018-12-23T20:02:18.848Z,55.60
2018-12-23T20:05:26.638Z,56.20
2018-12-23T20:08:32.246Z,57.40
2018-12-23T20:11:40.194Z,58.60
2018-12-23T20:14:52.200Z,60.50
2018-12-23T20:18:13.794Z,60.80
2018-12-23T20:21:26.290Z,60.50
2018-12-23T20:24:21.537Z,62.00
2018-12-23T20:27:21.461Z,62.40
2018-12-23T20:30:32.952Z,63.00
2018-12-23T20:33:51.170Z,62.90
2018-12-23T20:36:57.881Z,63.90
2018-12-23T20:40:31.134Z,64.10
2018-12-23T20:43:28.488Z,65.00
2018-12-23T20:46:47.594Z,65.60
2018-12-23T20:49:49.034Z,65.80
2018-12-23T20:53:11.496Z,66.70
2018-12-23T20:56:15.116Z,67.10
2018-12-23T20:59:12.129Z,67.30
2018-12-23T21:02:16.373Z,67.80
2018-12-23T21:05:24.558Z,67.60
2018-12-23T21:08:31.484Z,67.70
2018-12-23T21:11:56.253Z,67.70
2018-12-23T21:15:19.028Z,68.80
2018-12-23T21:18:46.364Z,69.20
2018-12-23T21:22:01.730Z,69.80
2018-12-23T21:25:11.133Z,70.00
2018-12-23T21:28:23.925Z,70.10
2018-12-23T21:31:49.971Z,69.90
2018-12-23T21:35:04.817Z,70.30
2018-12-23T21:38:14.711Z,70.70
2018-12-23T21:41:48.090Z,71.20
2018-12-23T21:45:09.846Z,71.30
2018-12-23T21:48:04.255Z,72.30
2018-12-23T21:51:19.808Z,73.90
2018-12-23T21:54:34.125Z,74.10
2018-12-23T21:57:31.146Z,74.50
2018-12-23T22:00:26.391Z,75.50
2018-12-23T22:03:44.191Z,76.80
2018-12-23T22:07:12.782Z,76.90
2018-12-23T22:10:20.234Z,77.30
2018-12-23T22:13:29.649Z,79.30
2018-12-23T22:16:02.847Z,78.90
2018-12-23T22:18:35.829Z,78.30
2018-12-23T22:21:09.232Z,77.60
2018-12-23T22:23:41.873Z,77.00
2018-12-23T22:26:15.201Z,77.60
2018-12-23T22:28:48.230Z,78.30
2018-12-23T22:31:21.452Z,78.40
2018-12-23T22:33:54.676Z,78.20
2018-12-23T22:36:28.302Z,79.00
2018-12-23T22:39:01.136Z,80.40
2018-12-23T22:41:41.319Z,80.40
2018-12-23T22:44:09.009Z,80.00
2018-12-23T22:46:41.820Z,79.80
2018-12-23T22:49:14.529Z,80.70
2018-12-23T22:51:47.729Z,80.50
2018-12-23T22:54:20.238Z,80.20
2018-12-23T22:56:53.036Z,79.80
2018-12-23T22:59:25.878Z,79.70
2018-12-23T23:01:58.558Z,80.00
2018-12-23T23:04:31.874Z,80.00
2018-12-23T23:07:05.052Z,79.50
2018-12-23T23:09:37.625Z,78.70
2018-12-23T23:12:10.580Z,78.10
2018-12-23T23:14:43.581Z,77.80
2018-12-23T23:17:16.780Z,81.30
2018-12-23T23:19:49.713Z,79.90
2018-12-23T23:22:22.907Z,77.70
2018-12-23T23:24:55.637Z,77.70
2018-12-23T23:27:28.819Z,78.70
2018-12-23T23:30:01.930Z,78.90
2018-12-23T23:32:34.742Z,79.70
2018-12-23T23:35:07.658Z,82.90
2018-12-23T23:37:40.957Z,83.90
2018-12-23T23:40:13.658Z,82.30
2018-12-23T23:42:46.314Z,79.70
2018-12-23T23:45:19.139Z,79.30
2018-12-23T23:47:52.129Z,78.40
2018-12-23T23:50:25.580Z,80.40
2018-12-23T23:52:58.695Z,82.40
2018-12-23T23:55:31.817Z,82.00
2018-12-23T23:58:04.663Z,83.50
